Terminal Aerodrome Forecast
Issued by NWS

Home | Current Version | Previous Version | Graphics & Text | Print | Product List | Glossary On
Versions: 1 2 3 4 5 6 7 8 9 10 11 12 13 14
738
FTUS41 KCLE 221120
TAFFDY
TAF
KFDY 221120Z 2212/2312 00000KT 4SM BR SKC
     FM221300 VRB03KT P6SM SKC
     FM221700 06005KT P6SM SCT200
     FM230200 VRB03KT P6SM SCT250=

USA.gov is the U.S. government's official web portal to all federal, state and local government web resources and services.